Time;durP1;ratioP1;P1;durP2;ratioP2;P2;SDS_P1;SDS_P2;PMS_P1;PMS_P2;Temp;Humidity;BMP_temperature;BMP_pressure;BME280_temperature;BME280_humidity;BME280_pressure;Samples;Min_cycle;Max_cycle;Signal;HPM_P1;HPM_P2
2021/10/21 00:01:56;;;;;;;0.50;0.50;;;2.40;99.90;;;;;;5154443;27;20022;-69
2021/10/21 00:04:24;;;;;;;0.93;0.70;;;2.40;99.90;;;;;;5154639;27;20209;-68
2021/10/21 00:06:50;;;;;;;0.40;0.40;;;2.40;99.90;;;;;;5154398;27;20105;-68
2021/10/21 00:09:15;;;;;;;0.50;0.50;;;2.40;99.90;;;;;;5154379;27;20030;-69
2021/10/21 00:11:42;;;;;;;0.50;0.50;;;2.40;99.90;;;;;;5154285;27;20351;-68
2021/10/21 00:14:07;;;;;;;0.52;0.52;;;2.40;99.90;;;;;;5152998;27;20484;-69
2021/10/21 00:16:33;;;;;;;0.60;0.60;;;2.40;99.90;;;;;;5154259;27;20057;-69
2021/10/21 00:18:59;;;;;;;0.50;0.50;;;2.40;99.90;;;;;;5153991;27;20030;-72
2021/10/21 00:21:25;;;;;;;0.47;0.47;;;2.30;99.90;;;;;;5154017;27;20019;-73
2021/10/21 00:23:51;;;;;;;0.60;0.60;;;2.30;99.90;;;;;;5153884;27;20033;-73
2021/10/21 00:26:17;;;;;;;0.50;0.50;;;2.20;99.90;;;;;;5154017;27;20019;-73
2021/10/21 00:28:42;;;;;;;0.60;0.60;;;2.20;99.90;;;;;;5154238;27;20478;-74
2021/10/21 00:31:08;;;;;;;0.50;0.50;;;2.30;99.90;;;;;;5153778;27;20038;-73
2021/10/21 00:33:34;;;;;;;0.50;0.50;;;2.30;99.90;;;;;;5153949;27;20050;-72
2021/10/21 00:35:59;;;;;;;0.60;0.60;;;2.30;99.90;;;;;;5153833;27;20030;-72
2021/10/21 00:38:25;;;;;;;0.80;0.60;;;2.40;99.90;;;;;;5153908;27;20423;-72
2021/10/21 00:40:51;;;;;;;0.50;0.50;;;2.40;99.90;;;;;;5153708;27;20127;-72
2021/10/21 00:43:17;;;;;;;0.60;0.60;;;2.30;99.90;;;;;;5153699;27;20019;-72
2021/10/21 00:45:43;;;;;;;0.60;0.60;;;2.30;99.90;;;;;;5153826;27;20035;-72
2021/10/21 00:48:09;;;;;;;0.50;0.50;;;2.40;99.90;;;;;;5153706;27;20026;-72
2021/10/21 00:50:36;;;;;;;0.60;0.60;;;2.30;99.90;;;;;;5154008;27;20023;-72
2021/10/21 00:53:03;;;;;;;0.60;0.60;;;2.40;99.90;;;;;;5153232;27;20019;-71
2021/10/21 00:55:29;;;;;;;0.70;0.70;;;2.40;99.90;;;;;;5153505;27;20117;-71
2021/10/21 00:57:57;;;;;;;0.50;0.50;;;2.40;99.90;;;;;;5153485;27;20022;-71
2021/10/21 01:00:23;;;;;;;0.50;0.50;;;2.40;99.90;;;;;;5153885;27;20027;-72
2021/10/21 01:02:49;;;;;;;0.60;0.60;;;2.40;99.90;;;;;;5153646;27;20034;-72
2021/10/21 01:05:15;;;;;;;0.50;0.50;;;2.40;99.90;;;;;;5153583;27;20011;-71
2021/10/21 01:07:41;;;;;;;0.50;0.50;;;2.30;99.90;;;;;;5153642;27;20629;-72
2021/10/21 01:10:10;;;;;;;0.50;0.50;;;2.40;99.90;;;;;;5153587;27;20037;-71
2021/10/21 01:12:37;;;;;;;0.50;0.50;;;2.40;99.90;;;;;;5153617;27;20355;-71
2021/10/21 01:15:27;;;;;;;0.70;0.70;;;2.40;99.90;;;;;;5153505;27;20030;-71
2021/10/21 01:17:54;;;;;;;1.10;0.60;;;2.30;99.90;;;;;;5153532;27;20019;-71
2021/10/21 01:20:21;;;;;;;0.60;0.60;;;2.30;99.90;;;;;;5153763;27;20033;-70
2021/10/21 01:22:48;;;;;;;0.57;0.57;;;2.30;99.90;;;;;;5153564;27;20031;-71
2021/10/21 01:25:17;;;;;;;0.70;0.70;;;2.30;99.90;;;;;;5153327;27;20283;-70
2021/10/21 01:27:44;;;;;;;0.60;0.60;;;2.30;99.90;;;;;;5153263;27;20068;-70
2021/10/21 01:30:22;;;;;;;0.60;0.60;;;2.30;99.90;;;;;;5153254;27;20043;-70
2021/10/21 01:32:48;;;;;;;0.50;0.50;;;2.30;99.90;;;;;;5153245;27;20030;-70
2021/10/21 01:35:15;;;;;;;0.50;0.50;;;2.30;99.90;;;;;;5153282;27;20154;-72
2021/10/21 01:37:41;;;;;;;0.60;0.60;;;2.30;99.90;;;;;;5153535;27;20014;-72
2021/10/21 01:40:10;;;;;;;0.50;0.50;;;2.30;99.90;;;;;;5153166;27;20534;-71
2021/10/21 01:42:38;;;;;;;0.60;0.60;;;2.30;99.90;;;;;;5153244;27;20025;-72
2021/10/21 01:45:23;;;;;;;0.63;0.63;;;2.30;99.90;;;;;;5153467;27;20027;-72
2021/10/21 01:47:50;;;;;;;0.57;0.57;;;2.30;99.90;;;;;;5153175;27;20019;-72
2021/10/21 01:50:17;;;;;;;0.80;0.80;;;2.30;99.90;;;;;;5152987;27;20042;-72
2021/10/21 01:52:43;;;;;;;0.60;0.60;;;2.20;99.90;;;;;;5153144;27;20038;-72
2021/10/21 01:55:10;;;;;;;0.50;0.50;;;2.20;99.90;;;;;;5152879;27;20533;-72
2021/10/21 01:57:37;;;;;;;0.70;0.70;;;2.20;99.90;;;;;;5151770;27;20386;-72
2021/10/21 02:00:10;;;;;;;0.60;0.60;;;2.20;99.90;;;;;;5153310;27;20473;-70
2021/10/21 02:02:36;;;;;;;0.60;0.60;;;2.20;99.90;;;;;;5152994;27;20034;-70
2021/10/21 02:05:03;;;;;;;0.68;0.68;;;2.20;99.90;;;;;;5155308;27;20018;-70
2021/10/21 02:07:29;;;;;;;0.60;0.60;;;2.20;99.90;;;;;;5156347;27;20107;-70
2021/10/21 02:09:55;;;;;;;0.70;0.70;;;2.20;99.90;;;;;;5156623;27;20069;-70
2021/10/21 02:12:21;;;;;;;0.60;0.60;;;2.10;99.90;;;;;;5156780;27;20050;-70
2021/10/21 02:14:46;;;;;;;0.60;0.60;;;2.10;99.90;;;;;;5156638;27;20023;-70
2021/10/21 02:17:12;;;;;;;0.60;0.60;;;2.10;99.90;;;;;;5156403;27;20025;-70
2021/10/21 02:19:38;;;;;;;0.52;0.52;;;2.10;99.90;;;;;;5156577;27;20381;-70
2021/10/21 02:22:04;;;;;;;0.60;0.60;;;2.20;99.90;;;;;;5156296;27;20050;-71
2021/10/21 02:56:00;;;;;;;0.60;0.60;;;2.20;99.90;;;;;;5155437;27;20046;-68
2021/10/21 02:58:26;;;;;;;0.60;0.60;;;2.30;99.90;;;;;;5155427;27;20019;-69
2021/10/21 03:00:51;;;;;;;0.60;0.60;;;2.20;99.90;;;;;;5155597;27;20113;-68
2021/10/21 03:03:17;;;;;;;0.60;0.60;;;2.20;99.90;;;;;;5155769;27;20110;-69
2021/10/21 03:05:43;;;;;;;0.50;0.50;;;2.10;99.90;;;;;;5154248;27;20121;-69
2021/10/21 03:08:08;;;;;;;0.60;0.60;;;2.00;99.90;;;;;;5155431;27;20023;-68
2021/10/21 03:10:34;;;;;;;0.70;0.70;;;2.00;99.90;;;;;;5155454;27;20145;-68
2021/10/21 03:13:00;;;;;;;1.42;0.55;;;2.00;99.90;;;;;;5155288;27;20033;-68
2021/10/21 03:15:28;;;;;;;0.60;0.60;;;2.10;99.90;;;;;;5154853;27;20018;-68
2021/10/21 03:17:55;;;;;;;0.60;0.60;;;2.00;99.90;;;;;;5155168;27;20027;-68
2021/10/21 03:20:21;;;;;;;0.60;0.60;;;2.00;99.90;;;;;;5155180;27;20018;-68
2021/10/21 03:22:47;;;;;;;0.60;0.60;;;2.00;99.90;;;;;;5155164;27;20442;-68
2021/10/21 03:25:13;;;;;;;0.60;0.60;;;2.00;99.90;;;;;;5155119;27;20094;-68
2021/10/21 03:27:40;;;;;;;0.60;0.60;;;2.00;99.90;;;;;;5155382;27;20078;-68
2021/10/21 03:30:08;;;;;;;0.70;0.70;;;2.00;99.90;;;;;;5154794;27;20485;-68
2021/10/21 03:32:34;;;;;;;0.60;0.60;;;2.00;99.90;;;;;;5155217;27;20022;-68
2021/10/21 03:35:00;;;;;;;0.60;0.60;;;2.00;99.90;;;;;;5154990;27;20385;-69
2021/10/21 03:37:26;;;;;;;0.68;0.63;;;2.00;99.90;;;;;;5155075;27;20063;-68
2021/10/21 03:39:52;;;;;;;0.60;0.60;;;2.00;99.90;;;;;;5154880;27;20027;-68
2021/10/21 03:42:19;;;;;;;0.70;0.70;;;1.90;99.90;;;;;;5154638;27;20034;-68
2021/10/21 03:44:45;;;;;;;0.70;0.70;;;1.90;99.90;;;;;;5154989;27;20023;-68
2021/10/21 03:47:11;;;;;;;0.60;0.60;;;1.70;99.90;;;;;;5154944;27;20361;-68
2021/10/21 03:49:37;;;;;;;2.60;0.85;;;1.70;99.90;;;;;;5154875;27;20035;-68
2021/10/21 03:52:04;;;;;;;1.67;1.23;;;1.70;99.90;;;;;;5154632;27;20537;-68
2021/10/21 03:54:30;;;;;;;1.95;1.05;;;1.70;99.90;;;;;;5154626;27;20474;-68
2021/10/21 03:56:56;;;;;;;3.95;1.73;;;1.70;99.90;;;;;;5154698;27;20053;-68
2021/10/21 03:59:22;;;;;;;1.38;0.95;;;1.60;99.90;;;;;;5154472;27;20486;-68
2021/10/21 04:01:48;;;;;;;1.35;1.08;;;1.70;99.90;;;;;;5154844;27;20501;-69
2021/10/21 04:04:14;;;;;;;1.77;1.05;;;1.70;99.90;;;;;;5154275;27;20538;-68
2021/10/21 04:06:41;;;;;;;1.00;1.00;;;1.60;99.90;;;;;;5154445;27;20044;-69
2021/10/21 04:09:07;;;;;;;0.70;0.70;;;1.60;99.90;;;;;;5154112;27;20053;-68
2021/10/21 04:11:33;;;;;;;0.80;0.80;;;1.60;99.90;;;;;;5154277;27;20427;-67
2021/10/21 04:14:00;;;;;;;0.85;0.80;;;1.50;99.90;;;;;;5154512;27;20076;-68
2021/10/21 04:16:26;;;;;;;0.70;0.70;;;1.50;99.90;;;;;;5154113;27;20023;-68
2021/10/21 04:18:52;;;;;;;0.70;0.70;;;1.40;99.90;;;;;;5154089;27;20106;-69
2021/10/21 04:21:18;;;;;;;0.75;0.75;;;1.40;99.90;;;;;;5154310;27;20106;-69
2021/10/21 04:23:43;;;;;;;0.70;0.70;;;1.40;99.90;;;;;;5154240;27;20109;-69
2021/10/21 04:26:10;;;;;;;0.70;0.70;;;1.30;99.90;;;;;;5153637;27;20476;-69
2021/10/21 04:28:36;;;;;;;0.60;0.60;;;1.30;99.90;;;;;;5153514;27;20462;-69
2021/10/21 04:31:02;;;;;;;0.80;0.80;;;1.30;99.90;;;;;;5153927;27;20581;-66
2021/10/21 04:33:28;;;;;;;0.60;0.60;;;1.30;99.90;;;;;;5153716;27;20018;-66
2021/10/21 04:35:54;;;;;;;0.70;0.70;;;1.40;99.90;;;;;;5153959;27;20382;-65
2021/10/21 04:38:19;;;;;;;4.57;0.70;;;1.40;99.90;;;;;;5153603;27;20026;-70
2021/10/21 04:40:45;;;;;;;1.27;0.77;;;1.90;99.90;;;;;;5153801;27;20034;-71
2021/10/21 04:43:11;;;;;;;0.80;0.80;;;5.00;99.90;;;;;;5153503;27;20027;-66
2021/10/21 04:45:37;;;;;;;0.60;0.60;;;7.10;99.90;;;;;;5153381;27;20055;-66
2021/10/21 04:48:03;;;;;;;0.60;0.60;;;6.70;99.90;;;;;;5141257;27;20033;-66
2021/10/21 04:50:28;;;;;;;0.60;0.60;;;5.50;99.90;;;;;;5134514;27;20110;-66
2021/10/21 04:52:54;;;;;;;0.52;0.52;;;4.60;99.90;;;;;;5144771;27;20023;-65
2021/10/21 04:55:21;;;;;;;0.60;0.60;;;3.90;99.90;;;;;;5135872;27;20122;-62
2021/10/21 04:57:48;;;;;;;0.70;0.70;;;3.50;99.90;;;;;;5141106;27;20015;-63
2021/10/21 05:00:14;;;;;;;0.63;0.63;;;3.10;99.90;;;;;;5150972;27;20030;-63
2021/10/21 05:02:40;;;;;;;0.50;0.50;;;2.90;99.90;;;;;;5140012;27;20482;-63
2021/10/21 05:05:06;;;;;;;0.73;0.57;;;2.70;99.90;;;;;;5143773;27;20026;-63
2021/10/21 05:07:32;;;;;;;0.65;0.65;;;2.50;99.90;;;;;;5142688;27;20038;-63
2021/10/21 05:09:58;;;;;;;0.77;0.77;;;2.50;99.90;;;;;;5142663;27;20030;-64
2021/10/21 05:12:23;;;;;;;0.60;0.60;;;2.60;99.90;;;;;;5143430;27;20026;-63
2021/10/21 05:14:49;;;;;;;0.68;0.68;;;2.80;99.90;;;;;;5140584;27;20394;-65
2021/10/21 05:17:16;;;;;;;0.65;0.65;;;2.70;99.90;;;;;;5151170;27;20109;-64
2021/10/21 05:19:42;;;;;;;0.80;0.80;;;2.50;99.90;;;;;;5132614;28;20033;-64
2021/10/21 05:22:07;;;;;;;0.50;0.50;;;2.40;99.90;;;;;;5131139;28;20042;-64
2021/10/21 05:24:33;;;;;;;0.60;0.60;;;2.30;99.90;;;;;;5132719;28;20500;-64
2021/10/21 05:26:59;;;;;;;0.65;0.65;;;2.10;99.90;;;;;;5132535;28;20019;-63
2021/10/21 05:29:26;;;;;;;0.70;0.70;;;2.00;99.90;;;;;;5131903;28;20035;-63
2021/10/21 05:31:52;;;;;;;0.82;0.50;;;1.90;99.90;;;;;;5138811;27;20018;-63
2021/10/21 05:34:18;;;;;;;1.30;0.85;;;1.90;99.90;;;;;;5133280;27;20019;-63
2021/10/21 05:36:44;;;;;;;0.60;0.60;;;1.90;99.90;;;;;;5137782;27;20019;-63
2021/10/21 05:39:10;;;;;;;0.65;0.60;;;1.90;99.90;;;;;;5145521;27;20150;-64
2021/10/21 05:41:36;;;;;;;0.77;0.77;;;1.80;99.90;;;;;;5146178;27;20071;-63
2021/10/21 05:44:01;;;;;;;2.45;1.00;;;1.80;99.90;;;;;;5145237;27;20030;-63
2021/10/21 05:46:27;;;;;;;0.75;0.60;;;1.80;99.90;;;;;;5147077;27;20067;-63
2021/10/21 05:48:53;;;;;;;0.57;0.57;;;1.80;99.90;;;;;;5141453;27;20095;-63
2021/10/21 05:51:19;;;;;;;7.40;0.90;;;1.80;99.90;;;;;;5125707;27;20044;-63
2021/10/21 05:53:45;;;;;;;0.60;0.60;;;2.40;99.90;;;;;;5123625;27;20355;-62
2021/10/21 05:56:11;;;;;;;4.15;1.30;;;2.40;99.90;;;;;;5130792;27;20043;-63
2021/10/21 05:58:38;;;;;;;1.48;0.80;;;2.20;99.90;;;;;;5133098;27;20483;-63
2021/10/21 06:01:04;;;;;;;0.50;0.50;;;2.10;99.90;;;;;;5155672;27;20027;-63
2021/10/21 06:03:35;;;;;;;1.38;0.80;;;2.00;99.90;;;;;;5144941;27;20411;-64
2021/10/21 06:06:03;;;;;;;0.90;0.77;;;1.90;99.90;;;;;;5136114;27;20027;-64
2021/10/21 06:08:28;;;;;;;0.63;0.63;;;1.80;99.90;;;;;;5136051;27;20047;-65
2021/10/21 06:10:54;;;;;;;1.25;1.00;;;1.70;99.90;;;;;;5135828;27;20426;-64
2021/10/21 06:13:20;;;;;;;1.27;1.00;;;1.70;99.90;;;;;;5135780;27;20016;-66
2021/10/21 06:15:45;;;;;;;0.60;0.60;;;1.70;99.90;;;;;;5135830;27;20404;-66
2021/10/21 06:18:13;;;;;;;0.70;0.70;;;1.70;99.90;;;;;;5141652;27;20019;-66
2021/10/21 06:20:41;;;;;;;0.57;0.57;;;1.60;99.90;;;;;;5145908;27;20371;-66
2021/10/21 06:23:07;;;;;;;0.70;0.70;;;1.60;99.90;;;;;;5146064;27;20027;-65
2021/10/21 06:25:33;;;;;;;0.60;0.60;;;1.50;99.90;;;;;;5135666;27;20042;-62
2021/10/21 06:27:59;;;;;;;0.63;0.63;;;1.40;99.90;;;;;;5135695;27;20019;-62
2021/10/21 06:30:25;;;;;;;0.95;0.75;;;1.40;99.90;;;;;;5135169;27;20126;-61
2021/10/21 06:32:50;;;;;;;0.60;0.60;;;1.50;99.90;;;;;;5135376;27;20080;-61
2021/10/21 06:35:16;;;;;;;0.60;0.60;;;1.50;99.90;;;;;;5131464;27;20034;-62
2021/10/21 06:37:49;;;;;;;0.77;0.77;;;1.40;99.90;;;;;;5134024;27;20019;-63
2021/10/21 06:40:18;;;;;;;1.00;0.73;;;1.40;99.90;;;;;;5134446;27;20023;-63
2021/10/21 06:42:44;;;;;;;0.80;0.80;;;1.50;99.90;;;;;;5135092;27;20023;-63
2021/10/21 06:45:12;;;;;;;1.25;1.08;;;1.50;99.90;;;;;;5134993;27;20023;-63
2021/10/21 06:47:41;;;;;;;0.88;0.68;;;1.50;99.90;;;;;;5133984;27;20015;-63
2021/10/21 06:50:09;;;;;;;0.80;0.80;;;1.60;99.90;;;;;;5132052;27;20035;-64
2021/10/21 06:52:40;;;;;;;0.63;0.63;;;1.60;99.90;;;;;;5133751;27;20381;-63
2021/10/21 06:55:06;;;;;;;;;;;1.60;99.90;;;;;;5135162;27;20039;-64
2021/10/21 06:57:32;;;;;;;0.70;0.70;;;1.90;99.90;;;;;;5134231;27;19907;-62
2021/10/21 06:59:58;;;;;;;0.68;0.68;;;1.90;99.90;;;;;;5134869;27;20031;-62
2021/10/21 07:02:23;;;;;;;0.80;0.80;;;1.80;99.90;;;;;;5134674;27;20545;-64
2021/10/21 07:04:49;;;;;;;0.75;0.75;;;1.70;99.90;;;;;;5133460;27;20072;-65
2021/10/21 07:07:15;;;;;;;0.70;0.70;;;1.70;99.90;;;;;;5134332;27;20386;-65
2021/10/21 07:09:41;;;;;;;0.70;0.70;;;1.70;99.90;;;;;;5133244;27;20070;-65
2021/10/21 07:12:06;;;;;;;0.60;0.60;;;1.70;99.90;;;;;;5134891;27;20045;-66
2021/10/21 07:14:32;;;;;;;0.75;0.75;;;1.70;99.90;;;;;;5134064;27;20421;-66
2021/10/21 07:16:58;;;;;;;0.93;0.82;;;1.70;99.90;;;;;;5134638;27;20501;-66
2021/10/21 07:19:23;;;;;;;0.90;0.90;;;1.70;99.90;;;;;;5134422;27;20023;-65
2021/10/21 07:21:49;;;;;;;1.00;0.90;;;1.80;99.90;;;;;;5134321;27;20023;-65
2021/10/21 07:24:15;;;;;;;0.70;0.70;;;1.80;99.90;;;;;;5134215;27;20056;-65
2021/10/21 07:26:42;;;;;;;0.70;0.70;;;1.80;99.90;;;;;;5134630;27;20038;-65
2021/10/21 07:29:07;;;;;;;0.90;0.90;;;1.90;99.90;;;;;;5134202;27;20040;-65
2021/10/21 07:31:33;;;;;;;0.82;0.82;;;1.90;99.90;;;;;;5134572;27;20504;-65
2021/10/21 07:33:59;;;;;;;0.70;0.70;;;2.00;99.90;;;;;;5147089;27;20381;-65
2021/10/21 07:36:25;;;;;;;1.00;0.90;;;2.00;99.90;;;;;;5154925;27;20030;-65
2021/10/21 07:38:51;;;;;;;4.53;1.52;;;2.00;99.90;;;;;;5155130;27;20018;-65
2021/10/21 07:41:18;;;;;;;0.80;0.80;;;1.90;99.90;;;;;;5154895;27;20391;-65
2021/10/21 07:43:45;;;;;;;0.80;0.80;;;1.80;99.90;;;;;;5146851;27;20011;-66
2021/10/21 07:46:10;;;;;;;1.70;0.80;;;1.80;99.90;;;;;;5145810;27;20031;-64
2021/10/21 07:48:37;;;;;;;0.80;0.80;;;1.80;99.90;;;;;;5133619;27;20027;-68
2021/10/21 07:51:02;;;;;;;3.33;1.10;;;1.80;99.90;;;;;;5133910;27;20046;-64
2021/10/21 07:53:31;;;;;;;2.55;1.17;;;1.80;99.90;;;;;;5133572;27;20410;-64
2021/10/21 07:55:58;;;;;;;4.68;2.17;;;2.40;99.90;;;;;;5133024;27;20047;-63
2021/10/21 07:58:24;;;;;;;1.70;1.00;;;4.00;99.90;;;;;;5133279;27;20474;-63
2021/10/21 08:00:50;;;;;;;1.25;0.98;;;3.60;99.90;;;;;;5133010;27;20034;-63
2021/10/21 08:03:18;;;;;;;1.38;1.00;;;3.10;99.90;;;;;;5133284;27;20347;-63
2021/10/21 08:05:44;;;;;;;3.28;1.35;;;2.80;99.90;;;;;;5133873;27;20369;-64
2021/10/21 08:08:10;;;;;;;0.90;0.90;;;2.70;99.90;;;;;;5133602;27;20027;-63
2021/10/21 08:10:36;;;;;;;1.15;0.82;;;2.80;99.90;;;;;;5133344;27;20043;-63
2021/10/21 08:13:02;;;;;;;0.95;0.95;;;2.60;99.90;;;;;;5133635;27;20383;-63
2021/10/21 08:15:28;;;;;;;1.10;0.90;;;2.50;99.90;;;;;;5133415;27;20043;-63
2021/10/21 08:17:55;;;;;;;1.60;0.88;;;2.40;99.90;;;;;;5133423;27;20062;-63
2021/10/21 08:20:24;;;;;;;0.90;0.90;;;2.30;99.90;;;;;;5133673;27;20023;-63
2021/10/21 08:22:50;;;;;;;1.70;1.07;;;2.20;99.90;;;;;;5133645;27;20106;-63
2021/10/21 08:25:17;;;;;;;1.25;0.80;;;2.10;99.90;;;;;;5133326;27;20106;-65
2021/10/21 08:27:43;;;;;;;1.20;0.80;;;2.90;99.90;;;;;;5133296;27;20034;-65
2021/10/21 08:30:10;;;;;;;6.47;1.30;;;3.00;99.90;;;;;;5133088;27;20031;-65
2021/10/21 08:32:36;;;;;;;2.17;0.90;;;2.80;99.90;;;;;;5133107;27;20019;-65
2021/10/21 08:35:02;;;;;;;0.80;0.80;;;2.50;99.90;;;;;;5133332;27;20037;-65
2021/10/21 08:37:28;;;;;;;1.75;0.80;;;2.40;99.90;;;;;;5133308;27;20068;-65
2021/10/21 08:39:55;;;;;;;0.73;0.73;;;2.30;99.90;;;;;;5133102;27;20439;-66
2021/10/21 08:42:23;;;;;;;1.48;0.85;;;2.10;99.90;;;;;;5133038;27;20046;-64
2021/10/21 08:44:48;;;;;;;1.77;1.05;;;2.30;99.90;;;;;;5133150;27;20062;-64
2021/10/21 08:47:18;;;;;;;1.85;1.00;;;2.30;99.90;;;;;;5133067;27;20024;-64
2021/10/21 08:49:44;;;;;;;1.40;1.00;;;2.20;99.90;;;;;;5133127;27;20386;-65
2021/10/21 08:52:12;;;;;;;1.20;0.93;;;2.00;99.90;;;;;;5133257;28;20023;-65
2021/10/21 08:54:38;;;;;;;0.80;0.80;;;1.90;99.90;;;;;;5132715;28;20561;-65
2021/10/21 08:57:08;;;;;;;0.75;0.75;;;1.90;99.90;;;;;;5132675;28;20050;-65
2021/10/21 08:59:34;;;;;;;1.15;0.95;;;1.90;99.90;;;;;;5131072;28;20517;-65
2021/10/21 09:02:10;;;;;;;1.67;0.70;;;1.90;99.90;;;;;;5132330;28;20031;-65
2021/10/21 09:09:43;;;;;;;0.80;0.80;;;1.80;99.90;;;;;;5131831;28;20059;-65
2021/10/21 09:12:17;;;;;;;0.80;0.80;;;1.80;99.90;;;;;;5132459;27;20053;-65
2021/10/21 09:14:46;;;;;;;0.88;0.80;;;1.80;99.90;;;;;;5136046;27;20524;-65
2021/10/21 09:17:14;;;;;;;0.85;0.85;;;1.80;99.90;;;;;;5136779;27;20083;-65
2021/10/21 09:19:41;;;;;;;0.80;0.80;;;1.90;99.90;;;;;;5136738;27;20852;-65
2021/10/21 09:22:28;;;;;;;0.90;0.90;;;1.80;99.90;;;;;;5137038;27;20375;-65
2021/10/21 09:25:03;;;;;;;0.90;0.90;;;1.80;99.90;;;;;;5135408;27;20030;-65
2021/10/21 09:27:36;;;;;;;0.95;0.95;;;1.80;99.90;;;;;;5135896;27;20494;-65
2021/10/21 09:30:05;;;;;;;2.08;0.90;;;1.90;99.90;;;;;;5136411;27;20482;-65
2021/10/21 09:32:32;;;;;;;1.90;0.95;;;1.90;99.90;;;;;;5136269;27;20431;-65
2021/10/21 09:34:59;;;;;;;2.25;0.82;;;1.90;99.90;;;;;;5136438;27;20409;-63
2021/10/21 09:37:41;;;;;;;2.15;1.20;;;1.90;99.90;;;;;;5136282;27;20030;-64
2021/10/21 09:40:09;;;;;;;1.77;1.00;;;1.90;99.90;;;;;;5136229;27;20111;-65
2021/10/21 09:42:36;;;;;;;1.10;1.00;;;1.90;99.90;;;;;;5135208;27;20023;-66
2021/10/21 09:45:14;;;;;;;4.00;1.40;;;3.00;99.90;;;;;;5136293;27;20030;-65
2021/10/21 09:47:43;;;;;;;1.77;0.90;;;2.90;99.90;;;;;;5136120;27;20019;-63
2021/10/21 09:50:27;;;;;;;1.35;1.10;;;2.70;99.90;;;;;;5136338;27;20031;-63
2021/10/21 09:53:20;;;;;;;0.90;0.90;;;2.50;99.90;;;;;;5138828;27;20389;-64
2021/10/21 09:56:03;;;;;;;0.70;0.70;;;2.40;99.90;;;;;;5136383;27;20097;-63
2021/10/21 09:58:37;;;;;;;0.90;0.90;;;2.30;99.90;;;;;;5125403;27;20043;-63
2021/10/21 10:01:08;;;;;;;1.17;0.80;;;2.20;99.90;;;;;;5123571;27;20208;-64
2021/10/21 10:03:36;;;;;;;10.75;1.75;;;2.20;99.90;;;;;;5115200;28;20023;-65
2021/10/21 10:06:02;;;;;;;1.10;1.00;;;2.10;99.90;;;;;;5115179;28;20015;-64
2021/10/21 10:08:29;;;;;;;0.73;0.73;;;2.10;99.90;;;;;;5114842;28;20046;-64
2021/10/21 10:10:57;;;;;;;0.90;0.90;;;2.00;99.90;;;;;;5115287;28;20039;-64
2021/10/21 10:13:23;;;;;;;0.82;0.82;;;2.00;99.90;;;;;;5115074;28;20115;-64
2021/10/21 10:15:52;;;;;;;1.65;1.08;;;2.00;99.90;;;;;;5115008;28;20034;-63
2021/10/21 10:18:19;;;;;;;0.75;0.75;;;1.90;99.90;;;;;;5114956;28;20027;-63
2021/10/21 10:21:12;;;;;;;14.70;2.92;;;1.90;99.90;;;;;;5114760;28;20023;-63
2021/10/21 10:23:51;;;;;;;1.15;1.00;;;1.90;99.90;;;;;;5110386;28;20118;-66
2021/10/21 10:26:50;;;;;;;0.80;0.80;;;1.80;99.90;;;;;;5113850;28;20034;-66
2021/10/21 10:29:18;;;;;;;1.63;1.20;;;1.80;99.90;;;;;;5114511;28;20093;-65
2021/10/21 10:31:45;;;;;;;1.40;1.08;;;1.80;99.90;;;;;;5114315;28;20031;-66
2021/10/21 10:34:32;;;;;;;1.20;1.00;;;1.80;99.90;;;;;;5114774;28;20429;-66
2021/10/21 10:37:13;;;;;;;2.35;0.80;;;1.80;99.90;;;;;;5114843;28;20119;-66
2021/10/21 10:39:48;;;;;;;1.80;1.05;;;1.70;99.90;;;;;;5113146;28;20037;-64
2021/10/21 10:42:15;;;;;;;0.80;0.80;;;1.80;99.90;;;;;;5114448;28;20144;-63
2021/10/21 10:44:40;;;;;;;1.45;1.20;;;1.90;99.90;;;;;;5113958;28;20027;-63
2021/10/21 10:47:08;;;;;;;8.98;2.35;;;1.90;99.90;;;;;;5114385;28;20020;-63
2021/10/21 10:49:40;;;;;;;1.17;0.80;;;1.90;99.90;;;;;;5113975;28;20101;-63
2021/10/21 10:52:11;;;;;;;1.20;0.98;;;1.90;99.90;;;;;;5114358;28;20471;-63
2021/10/21 10:54:39;;;;;;;2.58;1.10;;;2.00;99.90;;;;;;5114094;28;20413;-64
2021/10/21 10:57:13;;;;;;;1.15;0.77;;;2.00;99.90;;;;;;5114504;28;20023;-64
2021/10/21 10:59:40;;;;;;;0.98;0.88;;;2.00;99.90;;;;;;5114195;28;20047;-63
2021/10/21 11:02:33;;;;;;;0.90;0.90;;;2.10;99.90;;;;;;5114334;28;20020;-63
2021/10/21 11:05:06;;;;;;;6.20;1.83;;;2.10;99.90;;;;;;5114368;27;20020;-64
2021/10/21 11:07:41;;;;;;;4.93;1.33;;;2.10;99.90;;;;;;5114140;28;20528;-65
2021/10/21 11:10:16;;;;;;;1.10;1.00;;;2.10;99.90;;;;;;5114371;28;20069;-65
2021/10/21 11:12:42;;;;;;;1.92;0.95;;;2.00;99.90;;;;;;5114082;28;20024;-66
2021/10/21 11:15:29;;;;;;;0.88;0.80;;;1.90;99.90;;;;;;5113942;28;20032;-66
2021/10/21 11:17:59;;;;;;;1.73;0.70;;;2.00;99.90;;;;;;5116608;27;20020;-66
2021/10/21 11:20:28;;;;;;;0.75;0.75;;;1.90;99.90;;;;;;5122193;27;20027;-65
2021/10/21 11:22:59;;;;;;;0.90;0.85;;;1.90;99.90;;;;;;5136034;27;20031;-65
2021/10/21 11:25:27;;;;;;;2.05;1.40;;;1.90;99.90;;;;;;5133726;27;20023;-65
2021/10/21 11:27:53;;;;;;;3.75;1.35;;;1.90;99.90;;;;;;5145125;27;20354;-64
2021/10/21 11:30:23;;;;;;;0.85;0.85;;;1.90;99.90;;;;;;5142828;27;20031;-65
2021/10/21 11:32:50;;;;;;;1.10;0.98;;;1.90;99.90;;;;;;5134376;27;20494;-64
2021/10/21 11:35:18;;;;;;;1.63;1.08;;;1.80;99.90;;;;;;5134288;27;20084;-63
2021/10/21 11:37:44;;;;;;;2.42;1.02;;;1.90;99.90;;;;;;5133883;27;20420;-64
2021/10/21 11:40:35;;;;;;;1.98;0.82;;;1.80;99.90;;;;;;5134279;27;20019;-63
2021/10/21 11:43:24;;;;;;;1.10;1.00;;;1.80;99.90;;;;;;5134125;27;20026;-64
2021/10/21 11:45:53;;;;;;;0.75;0.70;;;1.80;99.90;;;;;;5133851;27;20030;-70
2021/10/21 11:48:20;;;;;;;7.13;2.00;;;2.90;99.90;;;;;;5133877;27;20030;-65
2021/10/21 11:50:50;;;;;;;7.30;1.38;;;4.60;99.90;;;;;;5133792;27;20045;-65
2021/10/21 11:53:18;;;;;;;1.08;0.95;;;4.10;99.90;;;;;;5133443;27;20072;-65
2021/10/21 11:55:49;;;;;;;2.55;1.10;;;3.60;99.90;;;;;;5133081;27;20071;-65
2021/10/21 11:58:25;;;;;;;0.80;0.80;;;3.20;99.90;;;;;;5133606;27;20019;-65
2021/10/21 12:00:54;;;;;;;0.90;0.90;;;2.90;99.90;;;;;;5132224;27;20041;-67
2021/10/21 12:03:39;;;;;;;1.00;0.93;;;2.80;99.90;;;;;;5133424;27;20024;-65
2021/10/21 12:06:07;;;;;;;0.90;0.80;;;2.80;99.90;;;;;;5133867;27;20049;-65
2021/10/21 12:08:34;;;;;;;1.00;0.90;;;2.80;99.90;;;;;;5131884;27;20409;-65
2021/10/21 12:11:02;;;;;;;0.73;0.73;;;2.80;99.90;;;;;;5133723;27;20035;-65
2021/10/21 12:13:33;;;;;;;1.13;0.73;;;2.70;99.90;;;;;;5133398;27;20426;-65
2021/10/21 12:16:03;;;;;;;0.82;0.77;;;2.60;99.90;;;;;;5133598;27;20027;-65
2021/10/21 12:18:32;;;;;;;4.22;0.98;;;2.50;99.90;;;;;;5133611;27;20091;-72
2021/10/21 12:21:03;;;;;;;1.10;1.00;;;3.50;99.90;;;;;;5133274;27;20023;-66
2021/10/21 12:23:31;;;;;;;5.60;1.77;;;5.10;99.90;;;;;;5133521;27;20045;-66
2021/10/21 12:26:01;;;;;;;1.58;0.82;;;4.60;99.90;;;;;;5133135;27;20026;-66
2021/10/21 12:29:08;;;;;;;0.80;0.80;;;4.00;99.90;;;;;;5137376;27;20023;-66
2021/10/21 12:31:37;;;;;;;0.93;0.80;;;3.50;99.90;;;;;;5124891;27;20114;-67
2021/10/21 12:34:09;;;;;;;1.17;0.85;;;3.10;99.90;;;;;;5133422;27;20076;-67
2021/10/21 12:36:42;;;;;;;1.23;0.90;;;2.90;99.90;;;;;;5133128;27;20023;-67
2021/10/21 12:39:11;;;;;;;0.82;0.70;;;2.80;99.90;;;;;;5133457;27;20496;-67
2021/10/21 12:41:56;;;;;;;3.03;1.00;;;2.70;99.90;;;;;;5132947;27;20049;-66
2021/10/21 12:44:27;;;;;;;1.35;0.93;;;2.60;99.90;;;;;;5133004;27;20027;-66
2021/10/21 12:47:13;;;;;;;0.85;0.68;;;2.60;99.90;;;;;;5139796;27;20031;-66
2021/10/21 12:49:40;;;;;;;12.27;2.88;;;2.40;99.90;;;;;;5112270;28;20717;-66
2021/10/21 12:52:12;;;;;;;3.42;1.40;;;2.30;99.90;;;;;;5112416;28;20046;-65
2021/10/21 12:54:39;;;;;;;2.35;1.10;;;2.40;99.90;;;;;;5112090;28;20052;-66
2021/10/21 12:57:06;;;;;;;1.80;1.40;;;2.50;99.90;;;;;;5112526;28;20084;-66
2021/10/21 12:59:34;;;;;;;1.80;1.30;;;2.50;99.90;;;;;;5112576;28;20390;-66
2021/10/21 13:02:09;;;;;;;1.30;1.20;;;2.40;99.90;;;;;;5112443;28;20425;-66
2021/10/21 13:04:40;;;;;;;1.20;1.10;;;2.50;99.90;;;;;;5112173;28;20081;-66
2021/10/21 13:07:07;;;;;;;1.40;0.90;;;2.40;99.90;;;;;;5112491;28;20032;-66
2021/10/21 13:09:33;;;;;;;2.13;1.15;;;2.30;99.90;;;;;;5112038;28;20027;-66
2021/10/21 13:11:59;;;;;;;9.68;2.42;;;2.30;99.90;;;;;;5112578;28;20055;-66
2021/10/21 13:14:34;;;;;;;2.15;1.27;;;2.20;99.90;;;;;;5112262;28;20027;-66
2021/10/21 13:17:00;;;;;;;3.17;1.55;;;2.30;99.90;;;;;;5142736;27;20034;-66
2021/10/21 13:19:26;;;;;;;0.80;0.80;;;2.30;99.90;;;;;;5153473;27;20034;-66
2021/10/21 13:21:52;;;;;;;1.15;1.00;;;2.20;99.90;;;;;;5149879;27;20337;-66
2021/10/21 13:24:18;;;;;;;1.38;0.90;;;2.20;99.90;;;;;;5153518;27;20059;-66
2021/10/21 13:26:43;;;;;;;0.93;0.90;;;2.30;99.90;;;;;;5137845;27;20065;-67
2021/10/21 13:29:09;;;;;;;1.35;1.00;;;2.40;99.90;;;;;;5132483;28;20425;-66
2021/10/21 13:31:35;;;;;;;0.98;0.98;;;2.40;99.90;;;;;;5149311;27;20106;-66
2021/10/21 13:34:01;;;;;;;1.50;0.98;;;2.30;99.90;;;;;;5147258;27;20029;-66
2021/10/21 13:36:27;;;;;;;1.05;0.95;;;2.30;99.90;;;;;;5152943;27;20026;-66
2021/10/21 13:38:53;;;;;;;1.02;0.90;;;2.30;99.90;;;;;;5145722;27;20091;-66
2021/10/21 13:41:19;;;;;;;1.45;1.17;;;2.30;99.90;;;;;;5142356;27;20019;-66